Time;durP1;ratioP1;P1;durP2;ratioP2;P2;SDS_P1;SDS_P2;PMS_P1;PMS_P2;Temp;Humidity;BMP_temperature;BMP_pressure;BME280_temperature;BME280_humidity;BME280_pressure;Samples;Min_cycle;Max_cycle;Signal;HPM_P1;HPM_P2
2023/09/15 10:07:10;;;;;;;;;0.40;0.40;;;;;;;;5102892;27;13450;-69
2023/09/15 10:09:36;;;;;;;;;14.80;12.60;;;;;;;;5087768;28;8818;-71
2023/09/15 10:12:02;;;;;;;;;14.75;13.25;;;;;;;;5087443;28;8807;-72
2023/09/15 10:14:28;;;;;;;;;8.00;7.50;;;;;;;;5086319;28;8830;-71
2023/09/15 10:16:54;;;;;;;;;7.00;7.00;;;;;;;;5021145;28;10799;-71
2023/09/15 10:19:20;;;;;;;;;8.00;8.00;;;;;;;;5046031;28;8939;-71
2023/09/15 10:21:46;;;;;;;;;11.25;10.50;;;;;;;;5045439;28;8938;-73
2023/09/15 10:24:12;;;;;;;;;8.00;8.00;;;;;;;;5043393;28;8858;-72
2023/09/15 10:26:43;;;;;;;;;9.40;8.20;;;;;;;;5045072;28;8843;-72
2023/09/15 10:29:13;;;;;;;;;10.60;9.20;;;;;;;;5043308;28;8835;-72
2023/09/15 10:31:42;;;;;;;;;10.60;9.40;;;;;;;;5044827;28;8838;-72
2023/09/15 10:34:07;;;;;;;;;9.00;9.00;;;;;;;;5045137;28;8799;-73
2023/09/15 10:36:33;;;;;;;;;15.50;13.25;;;;;;;;5046154;28;8866;-74
2023/09/15 10:39:09;;;;;;;;;7.75;7.75;;;;;;;;5046765;28;8796;-77
2023/09/15 10:41:34;;;;;;;;;9.20;9.00;;;;;;;;5045426;28;8901;-73
2023/09/15 10:43:59;;;;;;;;;9.75;9.50;;;;;;;;5046098;28;8812;-75
2023/09/15 10:46:54;;;;;;;;;11.25;11.25;;;;;;;;5046457;28;9563;-76
2023/09/15 10:49:20;;;;;;;;;11.20;9.80;;;;;;;;5045883;28;8837;-72
2023/09/15 10:51:53;;;;;;;;;11.67;9.67;;;;;;;;5064000;28;8969;-73
2023/09/15 10:54:19;;;;;;;;;15.25;15.25;;;;;;;;5064256;28;9752;-76
2023/09/15 10:56:45;;;;;;;;;15.25;15.25;;;;;;;;5063984;28;8841;-75
2023/09/15 10:59:10;;;;;;;;;12.67;12.00;;;;;;;;5064123;28;8770;-78
2023/09/15 11:01:36;;;;;;;;;12.00;12.00;;;;;;;;5047229;28;8986;-72
2023/09/15 11:04:02;;;;;;;;;13.33;13.00;;;;;;;;5062813;28;8928;-73
2023/09/15 11:06:29;;;;;;;;;11.00;10.33;;;;;;;;5061551;28;10634;-73
2023/09/15 11:08:54;;;;;;;;;11.25;10.00;;;;;;;;5063664;28;8798;-73
2023/09/15 11:11:20;;;;;;;;;14.00;12.00;;;;;;;;5063660;28;8826;-75
2023/09/15 11:13:45;;;;;;;;;11.00;11.00;;;;;;;;5046953;28;8817;-71
2023/09/15 11:16:10;;;;;;;;;18.00;18.00;;;;;;;;5063606;28;8821;-70
2023/09/15 11:18:36;;;;;;;;;0.00;0.00;;;;;;;;5050035;28;8810;-71
2023/09/15 11:21:02;;;;;;;;;14.67;12.00;;;;;;;;5049728;28;8937;-71
2023/09/15 11:23:28;;;;;;;;;13.33;12.00;;;;;;;;5049602;28;9585;-74
2023/09/15 11:26:01;;;;;;;;;11.75;10.00;;;;;;;;5040367;28;8828;-72
2023/09/15 11:28:26;;;;;;;;;8.75;8.25;;;;;;;;5032786;28;8791;-72
2023/09/15 11:30:52;;;;;;;;;7.33;7.33;;;;;;;;5032586;28;8800;-73
2023/09/15 11:33:18;;;;;;;;;7.00;6.00;;;;;;;;5032607;28;8795;-71
2023/09/15 11:35:46;;;;;;;;;6.50;6.50;;;;;;;;5032610;28;8792;-72
2023/09/15 11:38:13;;;;;;;;;9.25;9.25;;;;;;;;5032132;28;8796;-72
2023/09/15 11:40:44;;;;;;;;;7.25;7.25;;;;;;;;5031325;28;9890;-72
2023/09/15 11:43:09;;;;;;;;;10.00;10.00;;;;;;;;5032156;28;8812;-73
2023/09/15 11:45:34;;;;;;;;;10.67;9.67;;;;;;;;5032274;28;8831;-71
2023/09/15 11:48:00;;;;;;;;;8.67;8.00;;;;;;;;5032154;28;8800;-72
2023/09/15 11:50:28;;;;;;;;;17.67;16.00;;;;;;;;5032277;28;9596;-74
2023/09/15 11:52:53;;;;;;;;;9.75;7.50;;;;;;;;5031636;28;8816;-73
2023/09/15 11:55:20;;;;;;;;;7.67;7.67;;;;;;;;5032281;28;8985;-72
2023/09/15 11:57:46;;;;;;;;;12.25;12.25;;;;;;;;5032093;28;8942;-73
2023/09/15 12:00:16;;;;;;;;;21.00;16.33;;;;;;;;5030821;28;8926;-73
2023/09/15 12:02:43;;;;;;;;;10.67;10.33;;;;;;;;5030737;28;8816;-73
2023/09/15 12:05:08;;;;;;;;;6.00;6.00;;;;;;;;5031657;28;8824;-73
2023/09/15 12:07:36;;;;;;;;;10.00;8.00;;;;;;;;5031876;28;8803;-73
2023/09/15 12:10:01;;;;;;;;;9.00;9.00;;;;;;;;5031214;28;8800;-72
2023/09/15 12:12:27;;;;;;;;;9.33;9.33;;;;;;;;5031384;28;8827;-72
2023/09/15 12:14:54;;;;;;;;;10.75;9.50;;;;;;;;5031033;28;8927;-73
2023/09/15 12:17:19;;;;;;;;;15.50;14.25;;;;;;;;5031056;28;8804;-72
2023/09/15 12:19:45;;;;;;;;;10.00;10.00;;;;;;;;5030599;28;9038;-73
2023/09/15 12:22:10;;;;;;;;;15.00;13.00;;;;;;;;5031447;28;8828;-75
2023/09/15 12:24:35;;;;;;;;;12.00;10.00;;;;;;;;5029017;28;8820;-75
2023/09/15 12:27:02;;;;;;;;;10.00;9.00;;;;;;;;5030925;28;8843;-75
2023/09/15 12:29:28;;;;;;;;;13.75;12.25;;;;;;;;5025904;28;9502;-75
2023/09/15 12:31:53;;;;;;;;;15.67;14.33;;;;;;;;5028130;28;8799;-74
2023/09/15 12:34:21;;;;;;;;;9.00;7.67;;;;;;;;5030622;28;8812;-74
2023/09/15 12:36:47;;;;;;;;;9.25;9.25;;;;;;;;5030828;28;8804;-74
2023/09/15 12:39:13;;;;;;;;;16.50;13.75;;;;;;;;5029980;28;8858;-73
2023/09/15 12:41:38;;;;;;;;;14.00;13.67;;;;;;;;5011615;28;8818;-75
2023/09/15 12:44:04;;;;;;;;;13.00;13.00;;;;;;;;5011350;28;12403;-73
2023/09/15 12:46:29;;;;;;;;;15.67;12.33;;;;;;;;5011093;28;8838;-71
2023/09/15 12:48:54;;;;;;;;;9.33;9.33;;;;;;;;5010062;28;8814;-71
2023/09/15 12:51:19;;;;;;;;;11.33;11.33;;;;;;;;5011098;28;8861;-71
2023/09/15 12:53:45;;;;;;;;;17.00;17.00;;;;;;;;5009755;28;8846;-74
2023/09/15 12:56:10;;;;;;;;;17.00;14.67;;;;;;;;5018183;28;8955;-71
2023/09/15 12:58:35;;;;;;;;;15.00;12.33;;;;;;;;5030868;28;8810;-73
2023/09/15 13:01:01;;;;;;;;;17.67;14.67;;;;;;;;5030466;28;8823;-72
2023/09/15 13:03:26;;;;;;;;;33.00;28.67;;;;;;;;5030928;28;8818;-72
2023/09/15 13:05:52;;;;;;;;;16.00;15.00;;;;;;;;5029252;28;8836;-71
2023/09/15 13:08:17;;;;;;;;;19.33;17.33;;;;;;;;5030924;28;8834;-72
2023/09/15 13:10:42;;;;;;;;;14.00;10.67;;;;;;;;5030765;28;8799;-72
2023/09/15 13:13:08;;;;;;;;;12.33;10.00;;;;;;;;5030470;28;8812;-72
2023/09/15 13:15:34;;;;;;;;;13.75;12.25;;;;;;;;5030781;28;8934;-72
2023/09/15 13:17:59;;;;;;;;;8.00;8.00;;;;;;;;5029638;28;8934;-71
2023/09/15 13:20:24;;;;;;;;;10.67;9.33;;;;;;;;5030420;28;8842;-72
2023/09/15 13:22:49;;;;;;;;;15.00;14.00;;;;;;;;5030848;28;8808;-72
2023/09/15 13:25:15;;;;;;;;;8.00;8.00;;;;;;;;5030690;28;8824;-72
2023/09/15 13:27:42;;;;;;;;;9.67;8.00;;;;;;;;5030705;28;9558;-72
2023/09/15 13:30:09;;;;;;;;;8.75;7.75;;;;;;;;5030254;28;11494;-72
2023/09/15 13:32:34;;;;;;;;;8.00;8.00;;;;;;;;5030192;28;8823;-72
2023/09/15 13:35:00;;;;;;;;;11.00;10.00;;;;;;;;5030179;28;8812;-72
2023/09/15 13:37:26;;;;;;;;;8.75;8.00;;;;;;;;5030743;28;8822;-76
2023/09/15 13:39:51;;;;;;;;;8.33;8.33;;;;;;;;5030196;28;8796;-75
2023/09/15 13:42:27;;;;;;;;;10.00;9.00;;;;;;;;5029853;28;8800;-74
2023/09/15 13:44:52;;;;;;;;;9.00;9.00;;;;;;;;5028164;28;8842;-75
2023/09/15 13:47:18;;;;;;;;;9.00;9.00;;;;;;;;5029048;28;8812;-76
2023/09/15 13:49:43;;;;;;;;;8.67;8.33;;;;;;;;5030176;28;8888;-68
2023/09/15 13:52:08;;;;;;;;;10.67;10.33;;;;;;;;5029765;28;8808;-68
2023/09/15 13:54:33;;;;;;;;;10.67;10.00;;;;;;;;5030031;28;8839;-69
2023/09/15 13:56:59;;;;;;;;;9.33;9.33;;;;;;;;5030489;28;8804;-69
2023/09/15 13:59:24;;;;;;;;;9.00;8.00;;;;;;;;5030359;28;8846;-69
2023/09/15 14:01:49;;;;;;;;;7.33;7.33;;;;;;;;5029784;28;8981;-68
2023/09/15 14:04:17;;;;;;;;;8.33;7.00;;;;;;;;5029972;28;8818;-68
2023/09/15 14:06:44;;;;;;;;;8.50;8.50;;;;;;;;5030016;28;8839;-69
2023/09/15 14:09:10;;;;;;;;;7.25;7.25;;;;;;;;5029882;28;8846;-68
2023/09/15 14:11:38;;;;;;;;;10.67;9.00;;;;;;;;5029282;28;9530;-69
2023/09/15 14:14:03;;;;;;;;;7.75;7.75;;;;;;;;5029549;28;8784;-68
2023/09/15 14:16:28;;;;;;;;;9.33;9.33;;;;;;;;5029829;28;8850;-69
2023/09/15 14:18:53;;;;;;;;;9.67;8.00;;;;;;;;5030298;28;8788;-69
2023/09/15 14:21:19;;;;;;;;;10.00;8.00;;;;;;;;5029433;28;8834;-67
2023/09/15 14:23:44;;;;;;;;;8.00;8.00;;;;;;;;5030009;28;8804;-66
2023/09/15 14:26:10;;;;;;;;;8.67;8.00;;;;;;;;5030221;28;8855;-69
2023/09/15 14:28:35;;;;;;;;;9.33;9.00;;;;;;;;5030234;28;8788;-70
2023/09/15 14:31:02;;;;;;;;;8.00;8.00;;;;;;;;5029650;28;8804;-70
2023/09/15 14:33:27;;;;;;;;;5.75;5.75;;;;;;;;5027385;28;8828;-71
2023/09/15 14:35:52;;;;;;;;;7.33;7.33;;;;;;;;5028951;28;8930;-72
2023/09/15 14:38:17;;;;;;;;;8.67;8.00;;;;;;;;5029634;28;8808;-75
2023/09/15 14:40:43;;;;;;;;;9.33;7.33;;;;;;;;5030121;28;8898;-69
2023/09/15 14:43:08;;;;;;;;;10.00;8.33;;;;;;;;5030202;28;8796;-69
2023/09/15 14:45:33;;;;;;;;;13.00;10.33;;;;;;;;5029849;28;8851;-70
2023/09/15 14:48:02;;;;;;;;;11.00;9.00;;;;;;;;5029944;28;8923;-69
2023/09/15 14:50:29;;;;;;;;;11.00;10.00;;;;;;;;5030303;28;9511;-69
2023/09/15 14:52:54;;;;;;;;;11.00;8.25;;;;;;;;5031367;28;8783;-69
2023/09/15 14:55:19;;;;;;;;;11.00;10.00;;;;;;;;5049032;23;8820;-67
2023/09/15 14:57:44;;;;;;;;;10.00;10.00;;;;;;;;4990817;28;8814;-68
2023/09/15 15:00:10;;;;;;;;;10.00;8.67;;;;;;;;4991138;28;8912;-67
2023/09/15 15:02:36;;;;;;;;;8.00;8.00;;;;;;;;4990989;28;9558;-67
2023/09/15 15:05:01;;;;;;;;;10.67;9.33;;;;;;;;4990828;28;8873;-68
2023/09/15 15:07:26;;;;;;;;;10.33;10.33;;;;;;;;4990670;28;8830;-68
2023/09/15 15:09:51;;;;;;;;;9.00;9.00;;;;;;;;4992455;28;9580;-67
2023/09/15 15:12:17;;;;;;;;;9.33;9.33;;;;;;;;4992897;28;8802;-68
2023/09/15 15:14:42;;;;;;;;;4.00;3.00;;;;;;;;4993036;28;8813;-67
2023/09/15 15:17:08;;;;;;;;;10.00;10.00;;;;;;;;4992740;28;8803;-67
2023/09/15 15:19:33;;;;;;;;;9.00;8.33;;;;;;;;4993078;28;8795;-68
2023/09/15 15:21:58;;;;;;;;;9.00;9.00;;;;;;;;4975569;28;8843;-69
2023/09/15 15:24:23;;;;;;;;;9.67;9.67;;;;;;;;4992954;28;8783;-68
2023/09/15 15:26:49;;;;;;;;;9.00;9.00;;;;;;;;4992169;28;8850;-69
2023/09/15 15:29:14;;;;;;;;;10.00;9.33;;;;;;;;4992620;28;8814;-68
2023/09/15 15:31:39;;;;;;;;;10.33;10.33;;;;;;;;4992397;28;9540;-68
2023/09/15 15:34:04;;;;;;;;;8.00;8.00;;;;;;;;4992756;28;8815;-68
2023/09/15 15:36:30;;;;;;;;;9.67;9.67;;;;;;;;4992582;28;8795;-68
2023/09/15 15:38:55;;;;;;;;;9.33;9.33;;;;;;;;4992548;28;8837;-68
2023/09/15 15:41:21;;;;;;;;;12.33;12.33;;;;;;;;4991036;28;8826;-68
2023/09/15 15:43:46;;;;;;;;;9.67;9.67;;;;;;;;4991894;28;8802;-69
2023/09/15 15:46:12;;;;;;;;;9.00;8.00;;;;;;;;4992237;28;8815;-68
2023/09/15 15:48:37;;;;;;;;;5.67;5.67;;;;;;;;4992438;28;8791;-68
